sensor_id;sensor_type;location;lat;lon;timestamp;P1;durP1;ratioP1;P2;durP2;ratioP2
32407;SDS011;18869;55.970;37.502;2023-05-10T00:00:31;26.33;;;14.77;;
32407;SDS011;18869;55.970;37.502;2023-05-10T00:03:00;23.23;;;13.63;;
32407;SDS011;18869;55.970;37.502;2023-05-10T00:05:30;23.47;;;13.47;;
32407;SDS011;18869;55.970;37.502;2023-05-10T00:07:59;21.33;;;12.87;;
32407;SDS011;18869;55.970;37.502;2023-05-10T00:10:27;22.87;;;13.13;;
32407;SDS011;18869;55.970;37.502;2023-05-10T00:12:56;21.23;;;13.67;;
32407;SDS011;18869;55.970;37.502;2023-05-10T00:15:25;19.87;;;12.47;;
32407;SDS011;18869;55.970;37.502;2023-05-10T00:17:53;18.83;;;11.47;;
32407;SDS011;18869;55.970;37.502;2023-05-10T00:20:21;21.80;;;11.93;;
32407;SDS011;18869;55.970;37.502;2023-05-10T00:22:48;21.43;;;12.00;;
32407;SDS011;18869;55.970;37.502;2023-05-10T00:25:16;17.83;;;11.23;;
32407;SDS011;18869;55.970;37.502;2023-05-10T00:27:44;18.33;;;11.03;;
32407;SDS011;18869;55.970;37.502;2023-05-10T00:30:12;21.40;;;12.43;;
32407;SDS011;18869;55.970;37.502;2023-05-10T00:32:41;20.77;;;12.97;;
32407;SDS011;18869;55.970;37.502;2023-05-10T00:35:10;18.67;;;10.73;;
32407;SDS011;18869;55.970;37.502;2023-05-10T00:37:39;21.17;;;11.40;;
32407;SDS011;18869;55.970;37.502;2023-05-10T00:40:07;19.73;;;10.57;;
32407;SDS011;18869;55.970;37.502;2023-05-10T00:42:35;21.97;;;12.37;;
32407;SDS011;18869;55.970;37.502;2023-05-10T00:45:03;22.47;;;11.87;;
32407;SDS011;18869;55.970;37.502;2023-05-10T00:47:31;17.30;;;11.10;;
32407;SDS011;18869;55.970;37.502;2023-05-10T00:50:01;20.97;;;13.00;;
32407;SDS011;18869;55.970;37.502;2023-05-10T00:52:30;18.47;;;12.00;;
32407;SDS011;18869;55.970;37.502;2023-05-10T00:54:58;18.27;;;11.97;;
32407;SDS011;18869;55.970;37.502;2023-05-10T00:57:29;17.57;;;10.47;;
32407;SDS011;18869;55.970;37.502;2023-05-10T00:59:57;21.40;;;11.13;;
32407;SDS011;18869;55.970;37.502;2023-05-10T01:02:25;17.20;;;11.53;;
32407;SDS011;18869;55.970;37.502;2023-05-10T01:04:53;18.57;;;11.57;;
32407;SDS011;18869;55.970;37.502;2023-05-10T01:07:22;21.17;;;11.37;;
32407;SDS011;18869;55.970;37.502;2023-05-10T01:09:50;16.60;;;9.73;;
32407;SDS011;18869;55.970;37.502;2023-05-10T01:12:18;15.77;;;9.77;;
32407;SDS011;18869;55.970;37.502;2023-05-10T01:14:48;15.97;;;10.10;;
32407;SDS011;18869;55.970;37.502;2023-05-10T01:17:16;18.37;;;10.37;;
32407;SDS011;18869;55.970;37.502;2023-05-10T01:19:44;19.93;;;10.93;;
32407;SDS011;18869;55.970;37.502;2023-05-10T01:22:15;17.23;;;10.70;;
32407;SDS011;18869;55.970;37.502;2023-05-10T01:30:53;18.60;;;10.00;;
32407;SDS011;18869;55.970;37.502;2023-05-10T01:33:34;16.63;;;10.30;;
32407;SDS011;18869;55.970;37.502;2023-05-10T01:36:03;20.93;;;10.60;;
32407;SDS011;18869;55.970;37.502;2023-05-10T01:38:37;12.70;;;8.97;;
32407;SDS011;18869;55.970;37.502;2023-05-10T01:41:09;10.93;;;8.63;;
32407;SDS011;18869;55.970;37.502;2023-05-10T01:43:44;15.57;;;8.13;;
32407;SDS011;18869;55.970;37.502;2023-05-10T01:46:23;14.83;;;8.43;;
32407;SDS011;18869;55.970;37.502;2023-05-10T01:48:57;11.73;;;8.07;;
32407;SDS011;18869;55.970;37.502;2023-05-10T01:51:27;11.00;;;7.10;;
32407;SDS011;18869;55.970;37.502;2023-05-10T01:53:59;11.77;;;8.07;;
32407;SDS011;18869;55.970;37.502;2023-05-10T01:56:29;11.30;;;8.70;;
32407;SDS011;18869;55.970;37.502;2023-05-10T01:58:58;12.83;;;8.40;;
32407;SDS011;18869;55.970;37.502;2023-05-10T02:01:27;9.67;;;8.00;;
32407;SDS011;18869;55.970;37.502;2023-05-10T02:03:57;12.13;;;8.50;;
32407;SDS011;18869;55.970;37.502;2023-05-10T02:06:25;10.80;;;7.93;;
32407;SDS011;18869;55.970;37.502;2023-05-10T02:08:54;12.07;;;7.63;;
32407;SDS011;18869;55.970;37.502;2023-05-10T02:11:23;8.83;;;7.60;;
32407;SDS011;18869;55.970;37.502;2023-05-10T02:13:53;9.60;;;7.43;;
32407;SDS011;18869;55.970;37.502;2023-05-10T02:16:24;10.90;;;7.47;;
32407;SDS011;18869;55.970;37.502;2023-05-10T02:18:57;9.13;;;7.27;;
32407;SDS011;18869;55.970;37.502;2023-05-10T02:21:27;10.27;;;7.53;;
32407;SDS011;18869;55.970;37.502;2023-05-10T02:23:56;15.53;;;7.90;;
32407;SDS011;18869;55.970;37.502;2023-05-10T02:26:24;10.23;;;7.23;;
32407;SDS011;18869;55.970;37.502;2023-05-10T02:28:54;9.20;;;7.43;;
32407;SDS011;18869;55.970;37.502;2023-05-10T02:31:22;10.30;;;6.73;;
32407;SDS011;18869;55.970;37.502;2023-05-10T02:33:50;9.27;;;6.80;;
32407;SDS011;18869;55.970;37.502;2023-05-10T02:36:20;9.87;;;7.23;;
32407;SDS011;18869;55.970;37.502;2023-05-10T02:38:48;10.83;;;6.73;;
32407;SDS011;18869;55.970;37.502;2023-05-10T02:41:19;11.47;;;7.87;;
32407;SDS011;18869;55.970;37.502;2023-05-10T02:43:48;10.30;;;7.43;;
32407;SDS011;18869;55.970;37.502;2023-05-10T02:46:16;10.67;;;7.27;;
32407;SDS011;18869;55.970;37.502;2023-05-10T02:48:45;12.83;;;7.67;;
32407;SDS011;18869;55.970;37.502;2023-05-10T02:51:13;8.60;;;6.60;;
32407;SDS011;18869;55.970;37.502;2023-05-10T02:53:49;8.80;;;7.13;;
32407;SDS011;18869;55.970;37.502;2023-05-10T02:56:20;11.47;;;7.43;;
32407;SDS011;18869;55.970;37.502;2023-05-10T02:58:52;10.83;;;7.33;;
32407;SDS011;18869;55.970;37.502;2023-05-10T03:01:20;8.97;;;7.00;;
32407;SDS011;18869;55.970;37.502;2023-05-10T03:03:48;9.10;;;6.73;;
32407;SDS011;18869;55.970;37.502;2023-05-10T03:06:16;8.80;;;7.90;;
32407;SDS011;18869;55.970;37.502;2023-05-10T03:08:45;15.73;;;7.97;;
32407;SDS011;18869;55.970;37.502;2023-05-10T03:11:16;14.03;;;6.77;;
32407;SDS011;18869;55.970;37.502;2023-05-10T03:13:56;9.10;;;7.43;;
32407;SDS011;18869;55.970;37.502;2023-05-10T03:16:36;10.43;;;6.90;;
32407;SDS011;18869;55.970;37.502;2023-05-10T03:19:13;10.63;;;7.30;;
32407;SDS011;18869;55.970;37.502;2023-05-10T03:21:44;13.67;;;7.00;;
32407;SDS011;18869;55.970;37.502;2023-05-10T03:24:18;10.30;;;7.20;;
32407;SDS011;18869;55.970;37.502;2023-05-10T03:26:48;8.70;;;6.63;;
32407;SDS011;18869;55.970;37.502;2023-05-10T03:29:17;8.70;;;7.43;;
32407;SDS011;18869;55.970;37.502;2023-05-10T03:31:45;8.60;;;6.50;;
32407;SDS011;18869;55.970;37.502;2023-05-10T03:34:13;11.07;;;7.20;;
32407;SDS011;18869;55.970;37.502;2023-05-10T03:36:42;8.93;;;7.00;;
32407;SDS011;18869;55.970;37.502;2023-05-10T03:39:10;8.60;;;7.00;;
32407;SDS011;18869;55.970;37.502;2023-05-10T03:41:39;7.83;;;7.03;;
32407;SDS011;18869;55.970;37.502;2023-05-10T03:44:08;10.30;;;6.87;;
32407;SDS011;18869;55.970;37.502;2023-05-10T03:46:35;9.90;;;7.00;;
32407;SDS011;18869;55.970;37.502;2023-05-10T03:49:03;9.43;;;6.73;;
32407;SDS011;18869;55.970;37.502;2023-05-10T03:51:31;9.27;;;6.83;;
32407;SDS011;18869;55.970;37.502;2023-05-10T03:53:59;8.57;;;6.60;;
32407;SDS011;18869;55.970;37.502;2023-05-10T03:56:27;8.20;;;6.73;;
32407;SDS011;18869;55.970;37.502;2023-05-10T03:58:56;9.23;;;6.37;;
32407;SDS011;18869;55.970;37.502;2023-05-10T04:01:24;7.90;;;6.03;;
32407;SDS011;18869;55.970;37.502;2023-05-10T04:03:52;8.27;;;6.20;;
32407;SDS011;18869;55.970;37.502;2023-05-10T04:06:20;8.07;;;5.87;;
32407;SDS011;18869;55.970;37.502;2023-05-10T04:08:47;10.67;;;6.23;;
32407;SDS011;18869;55.970;37.502;2023-05-10T04:11:15;9.03;;;6.00;;
32407;SDS011;18869;55.970;37.502;2023-05-10T04:13:43;7.83;;;5.93;;
32407;SDS011;18869;55.970;37.502;2023-05-10T04:16:12;7.57;;;5.40;;
32407;SDS011;18869;55.970;37.502;2023-05-10T04:18:40;8.27;;;5.80;;
32407;SDS011;18869;55.970;37.502;2023-05-10T04:21:11;9.10;;;6.23;;
32407;SDS011;18869;55.970;37.502;2023-05-10T04:23:39;9.00;;;5.97;;
32407;SDS011;18869;55.970;37.502;2023-05-10T04:26:07;6.03;;;5.43;;
32407;SDS011;18869;55.970;37.502;2023-05-10T04:28:35;8.37;;;5.10;;
32407;SDS011;18869;55.970;37.502;2023-05-10T04:31:02;7.93;;;5.87;;
32407;SDS011;18869;55.970;37.502;2023-05-10T04:33:32;6.10;;;4.90;;
32407;SDS011;18869;55.970;37.502;2023-05-10T04:36:01;6.27;;;5.67;;
32407;SDS011;18869;55.970;37.502;2023-05-10T04:38:31;7.13;;;4.63;;
32407;SDS011;18869;55.970;37.502;2023-05-10T04:41:05;6.93;;;5.20;;
32407;SDS011;18869;55.970;37.502;2023-05-10T04:43:34;6.87;;;5.03;;
32407;SDS011;18869;55.970;37.502;2023-05-10T04:46:02;8.87;;;5.03;;
32407;SDS011;18869;55.970;37.502;2023-05-10T04:48:29;6.23;;;4.83;;
32407;SDS011;18869;55.970;37.502;2023-05-10T04:51:00;5.33;;;4.40;;
32407;SDS011;18869;55.970;37.502;2023-05-10T04:53:29;6.80;;;5.00;;
32407;SDS011;18869;55.970;37.502;2023-05-10T04:55:57;7.77;;;4.57;;
32407;SDS011;18869;55.970;37.502;2023-05-10T04:58:27;5.73;;;4.40;;
32407;SDS011;18869;55.970;37.502;2023-05-10T05:00:54;14.93;;;5.30;;
32407;SDS011;18869;55.970;37.502;2023-05-10T05:03:22;5.17;;;4.40;;
32407;SDS011;18869;55.970;37.502;2023-05-10T05:05:50;7.40;;;4.70;;
32407;SDS011;18869;55.970;37.502;2023-05-10T05:08:19;4.60;;;4.10;;
32407;SDS011;18869;55.970;37.502;2023-05-10T05:10:47;8.90;;;4.10;;
32407;SDS011;18869;55.970;37.502;2023-05-10T05:13:17;11.63;;;5.07;;
32407;SDS011;18869;55.970;37.502;2023-05-10T05:15:44;4.27;;;3.87;;
32407;SDS011;18869;55.970;37.502;2023-05-10T05:18:12;4.30;;;3.90;;
32407;SDS011;18869;55.970;37.502;2023-05-10T05:20:41;4.83;;;4.03;;
32407;SDS011;18869;55.970;37.502;2023-05-10T05:23:08;4.40;;;3.63;;
32407;SDS011;18869;55.970;37.502;2023-05-10T05:25:37;9.57;;;4.20;;
32407;SDS011;18869;55.970;37.502;2023-05-10T05:28:06;5.43;;;3.60;;
32407;SDS011;18869;55.970;37.502;2023-05-10T05:30:34;6.53;;;3.90;;
32407;SDS011;18869;55.970;37.502;2023-05-10T05:33:02;4.13;;;3.30;;
32407;SDS011;18869;55.970;37.502;2023-05-10T05:35:30;3.83;;;3.30;;
32407;SDS011;18869;55.970;37.502;2023-05-10T05:37:58;5.00;;;3.40;;
32407;SDS011;18869;55.970;37.502;2023-05-10T05:40:25;4.60;;;3.40;;
32407;SDS011;18869;55.970;37.502;2023-05-10T05:42:55;5.67;;;3.30;;
32407;SDS011;18869;55.970;37.502;2023-05-10T05:45:22;4.17;;;3.30;;
32407;SDS011;18869;55.970;37.502;2023-05-10T05:47:50;3.23;;;2.80;;
32407;SDS011;18869;55.970;37.502;2023-05-10T05:50:18;3.13;;;2.80;;
32407;SDS011;18869;55.970;37.502;2023-05-10T05:52:46;7.53;;;3.57;;
32407;SDS011;18869;55.970;37.502;2023-05-10T05:55:13;3.50;;;3.07;;
32407;SDS011;18869;55.970;37.502;2023-05-10T05:57:42;5.63;;;3.33;;
32407;SDS011;18869;55.970;37.502;2023-05-10T06:00:13;4.67;;;3.20;;
32407;SDS011;18869;55.970;37.502;2023-05-10T06:02:44;4.50;;;3.40;;
32407;SDS011;18869;55.970;37.502;2023-05-10T06:05:13;4.13;;;3.33;;
32407;SDS011;18869;55.970;37.502;2023-05-10T06:07:40;5.90;;;3.23;;
32407;SDS011;18869;55.970;37.502;2023-05-10T06:10:09;3.73;;;3.20;;
32407;SDS011;18869;55.970;37.502;2023-05-10T06:12:37;5.27;;;3.03;;
32407;SDS011;18869;55.970;37.502;2023-05-10T06:15:04;3.07;;;2.50;;
32407;SDS011;18869;55.970;37.502;2023-05-10T06:17:34;2.80;;;2.60;;
32407;SDS011;18869;55.970;37.502;2023-05-10T06:20:03;4.60;;;2.33;;
32407;SDS011;18869;55.970;37.502;2023-05-10T06:22:31;9.87;;;2.50;;
32407;SDS011;18869;55.970;37.502;2023-05-10T06:24:59;3.13;;;2.40;;
32407;SDS011;18869;55.970;37.502;2023-05-10T06:27:29;4.17;;;2.53;;
32407;SDS011;18869;55.970;37.502;2023-05-10T06:29:57;3.57;;;2.50;;
32407;SDS011;18869;55.970;37.502;2023-05-10T06:32:25;2.50;;;2.30;;
32407;SDS011;18869;55.970;37.502;2023-05-10T06:34:54;4.67;;;2.87;;
32407;SDS011;18869;55.970;37.502;2023-05-10T06:37:22;4.27;;;2.63;;
32407;SDS011;18869;55.970;37.502;2023-05-10T06:39:50;3.33;;;2.70;;
32407;SDS011;18869;55.970;37.502;2023-05-10T06:42:18;6.70;;;2.80;;
32407;SDS011;18869;55.970;37.502;2023-05-10T06:44:45;3.40;;;2.50;;
32407;SDS011;18869;55.970;37.502;2023-05-10T06:47:14;2.87;;;2.40;;
32407;SDS011;18869;55.970;37.502;2023-05-10T06:49:42;5.47;;;3.03;;
32407;SDS011;18869;55.970;37.502;2023-05-10T06:52:11;2.57;;;2.37;;
32407;SDS011;18869;55.970;37.502;2023-05-10T06:54:39;6.10;;;2.60;;
32407;SDS011;18869;55.970;37.502;2023-05-10T06:57:09;6.47;;;2.80;;
32407;SDS011;18869;55.970;37.502;2023-05-10T06:59:37;4.33;;;2.73;;
32407;SDS011;18869;55.970;37.502;2023-05-10T07:02:05;3.40;;;2.60;;
32407;SDS011;18869;55.970;37.502;2023-05-10T07:04:33;3.47;;;2.30;;
32407;SDS011;18869;55.970;37.502;2023-05-10T07:07:02;3.97;;;2.77;;
32407;SDS011;18869;55.970;37.502;2023-05-10T07:09:32;2.43;;;2.07;;
32407;SDS011;18869;55.970;37.502;2023-05-10T07:11:59;4.93;;;2.20;;
32407;SDS011;18869;55.970;37.502;2023-05-10T07:14:27;2.90;;;2.07;;
32407;SDS011;18869;55.970;37.502;2023-05-10T07:16:55;3.30;;;2.20;;
32407;SDS011;18869;55.970;37.502;2023-05-10T07:19:23;3.63;;;2.20;;
32407;SDS011;18869;55.970;37.502;2023-05-10T07:21:51;2.27;;;1.73;;
32407;SDS011;18869;55.970;37.502;2023-05-10T07:24:20;2.27;;;1.77;;
32407;SDS011;18869;55.970;37.502;2023-05-10T07:26:50;3.03;;;1.70;;
32407;SDS011;18869;55.970;37.502;2023-05-10T07:29:18;2.20;;;1.67;;
32407;SDS011;18869;55.970;37.502;2023-05-10T07:31:45;2.80;;;1.93;;
32407;SDS011;18869;55.970;37.502;2023-05-10T07:34:13;2.37;;;2.03;;
32407;SDS011;18869;55.970;37.502;2023-05-10T07:36:40;2.57;;;2.03;;
32407;SDS011;18869;55.970;37.502;2023-05-10T07:39:08;3.70;;;1.83;;
32407;SDS011;18869;55.970;37.502;2023-05-10T07:41:37;2.77;;;1.90;;
32407;SDS011;18869;55.970;37.502;2023-05-10T07:44:06;4.93;;;2.10;;
32407;SDS011;18869;55.970;37.502;2023-05-10T07:46:34;2.33;;;1.90;;
32407;SDS011;18869;55.970;37.502;2023-05-10T07:49:01;5.33;;;1.83;;
32407;SDS011;18869;55.970;37.502;2023-05-10T07:51:30;6.13;;;2.07;;
32407;SDS011;18869;55.970;37.502;2023-05-10T07:53:58;5.60;;;2.37;;
32407;SDS011;18869;55.970;37.502;2023-05-10T07:56:26;7.03;;;1.60;;
32407;SDS011;18869;55.970;37.502;2023-05-10T07:58:55;1.75;;;1.15;;
32407;SDS011;18869;55.970;37.502;2023-05-10T08:01:25;3.50;;;1.27;;
32407;SDS011;18869;55.970;37.502;2023-05-10T08:03:53;3.45;;;1.83;;
32407;SDS011;18869;55.970;37.502;2023-05-10T08:06:21;1.73;;;1.40;;
32407;SDS011;18869;55.970;37.502;2023-05-10T08:08:49;2.35;;;1.67;;
32407;SDS011;18869;55.970;37.502;2023-05-10T08:11:18;1.50;;;1.30;;
32407;SDS011;18869;55.970;37.502;2023-05-10T08:13:46;2.55;;;1.40;;
32407;SDS011;18869;55.970;37.502;2023-05-10T08:16:16;3.20;;;1.45;;
32407;SDS011;18869;55.970;37.502;2023-05-10T08:18:47;3.03;;;1.60;;
32407;SDS011;18869;55.970;37.502;2023-05-10T08:21:15;3.65;;;3.22;;
32407;SDS011;18869;55.970;37.502;2023-05-10T08:23:43;1.98;;;1.87;;
32407;SDS011;18869;55.970;37.502;2023-05-10T08:26:12;2.10;;;1.80;;
32407;SDS011;18869;55.970;37.502;2023-05-10T08:28:40;2.20;;;1.10;;
32407;SDS011;18869;55.970;37.502;2023-05-10T08:31:08;1.23;;;1.02;;
32407;SDS011;18869;55.970;37.502;2023-05-10T08:33:37;1.10;;;0.80;;
32407;SDS011;18869;55.970;37.502;2023-05-10T08:36:06;1.02;;;0.88;;
32407;SDS011;18869;55.970;37.502;2023-05-10T08:38:34;1.58;;;0.80;;
32407;SDS011;18869;55.970;37.502;2023-05-10T08:41:03;0.98;;;0.68;;
32407;SDS011;18869;55.970;37.502;2023-05-10T08:43:31;12.77;;;3.00;;
32407;SDS011;18869;55.970;37.502;2023-05-10T08:45:59;1.17;;;1.10;;
32407;SDS011;18869;55.970;37.502;2023-05-10T08:48:29;1.48;;;1.12;;
32407;SDS011;18869;55.970;37.502;2023-05-10T08:50:57;1.40;;;1.00;;
32407;SDS011;18869;55.970;37.502;2023-05-10T08:53:29;1.95;;;1.33;;
32407;SDS011;18869;55.970;37.502;2023-05-10T08:56:00;0.80;;;0.80;;
32407;SDS011;18869;55.970;37.502;2023-05-10T08:58:28;3.05;;;1.30;;
32407;SDS011;18869;55.970;37.502;2023-05-10T09:00:56;4.22;;;2.08;;
32407;SDS011;18869;55.970;37.502;2023-05-10T09:03:24;2.53;;;1.55;;
32407;SDS011;18869;55.970;37.502;2023-05-10T09:05:52;2.92;;;1.45;;
32407;SDS011;18869;55.970;37.502;2023-05-10T09:08:21;1.87;;;1.23;;
32407;SDS011;18869;55.970;37.502;2023-05-10T09:10:53;7.43;;;1.50;;
32407;SDS011;18869;55.970;37.502;2023-05-10T09:13:22;1.75;;;1.30;;
32407;SDS011;18869;55.970;37.502;2023-05-10T09:15:50;2.80;;;1.55;;
32407;SDS011;18869;55.970;37.502;2023-05-10T09:18:18;3.65;;;1.30;;
32407;SDS011;18869;55.970;37.502;2023-05-10T09:20:46;2.17;;;1.48;;
32407;SDS011;18869;55.970;37.502;2023-05-10T09:23:14;2.60;;;1.55;;
32407;SDS011;18869;55.970;37.502;2023-05-10T09:25:42;1.57;;;1.47;;
32407;SDS011;18869;55.970;37.502;2023-05-10T09:28:11;2.13;;;1.40;;
32407;SDS011;18869;55.970;37.502;2023-05-10T09:30:38;2.60;;;1.30;;
32407;SDS011;18869;55.970;37.502;2023-05-10T09:33:09;1.77;;;1.40;;
32407;SDS011;18869;55.970;37.502;2023-05-10T09:35:36;1.83;;;1.60;;
32407;SDS011;18869;55.970;37.502;2023-05-10T09:38:06;2.97;;;1.80;;
32407;SDS011;18869;55.970;37.502;2023-05-10T09:40:34;2.97;;;2.00;;
32407;SDS011;18869;55.970;37.502;2023-05-10T09:43:02;6.13;;;2.17;;
32407;SDS011;18869;55.970;37.502;2023-05-10T09:45:33;2.63;;;1.40;;
32407;SDS011;18869;55.970;37.502;2023-05-10T09:48:02;1.40;;;1.10;;
32407;SDS011;18869;55.970;37.502;2023-05-10T09:50:30;1.90;;;1.40;;
32407;SDS011;18869;55.970;37.502;2023-05-10T09:52:59;2.60;;;1.37;;
32407;SDS011;18869;55.970;37.502;2023-05-10T09:55:38;3.13;;;2.10;;
32407;SDS011;18869;55.970;37.502;2023-05-10T09:58:07;2.03;;;1.30;;
32407;SDS011;18869;55.970;37.502;2023-05-10T10:00:38;1.70;;;1.53;;
32407;SDS011;18869;55.970;37.502;2023-05-10T10:03:11;1.73;;;1.53;;
32407;SDS011;18869;55.970;37.502;2023-05-10T10:05:41;1.60;;;1.40;;
32407;SDS011;18869;55.970;37.502;2023-05-10T10:08:09;2.17;;;1.30;;
32407;SDS011;18869;55.970;37.502;2023-05-10T10:10:39;2.60;;;1.67;;
32407;SDS011;18869;55.970;37.502;2023-05-10T10:13:07;1.70;;;1.60;;
32407;SDS011;18869;55.970;37.502;2023-05-10T10:15:35;3.83;;;1.50;;
32407;SDS011;18869;55.970;37.502;2023-05-10T10:18:05;2.07;;;1.87;;
32407;SDS011;18869;55.970;37.502;2023-05-10T10:20:33;1.77;;;1.37;;
32407;SDS011;18869;55.970;37.502;2023-05-10T10:23:04;3.20;;;1.30;;
32407;SDS011;18869;55.970;37.502;2023-05-10T10:25:31;2.40;;;1.57;;
32407;SDS011;18869;55.970;37.502;2023-05-10T10:28:02;2.70;;;1.20;;
32407;SDS011;18869;55.970;37.502;2023-05-10T10:30:39;2.80;;;1.20;;
32407;SDS011;18869;55.970;37.502;2023-05-10T10:33:26;1.40;;;1.10;;
32407;SDS011;18869;55.970;37.502;2023-05-10T10:36:05;2.13;;;1.20;;
32407;SDS011;18869;55.970;37.502;2023-05-10T10:39:08;1.40;;;1.30;;
32407;SDS011;18869;55.970;37.502;2023-05-10T10:41:38;2.10;;;1.37;;
32407;SDS011;18869;55.970;37.502;2023-05-10T10:44:22;1.83;;;1.43;;
32407;SDS011;18869;55.970;37.502;2023-05-10T10:47:04;4.30;;;1.40;;
32407;SDS011;18869;55.970;37.502;2023-05-10T10:49:42;3.80;;;1.50;;
32407;SDS011;18869;55.970;37.502;2023-05-10T10:52:22;1.60;;;1.50;;
32407;SDS011;18869;55.970;37.502;2023-05-10T10:54:57;4.97;;;1.43;;
32407;SDS011;18869;55.970;37.502;2023-05-10T10:57:27;3.97;;;1.63;;
32407;SDS011;18869;55.970;37.502;2023-05-10T11:02:53;1.40;;;1.10;;
32407;SDS011;18869;55.970;37.502;2023-05-10T11:08:13;2.17;;;1.17;;
32407;SDS011;18869;55.970;37.502;2023-05-10T11:13:40;6.43;;;1.33;;
32407;SDS011;18869;55.970;37.502;2023-05-10T11:16:12;1.57;;;1.20;;
32407;SDS011;18869;55.970;37.502;2023-05-10T11:21:27;6.93;;;1.40;;
32407;SDS011;18869;55.970;37.502;2023-05-10T11:23:59;1.53;;;1.30;;
32407;SDS011;18869;55.970;37.502;2023-05-10T11:26:32;3.07;;;1.20;;
32407;SDS011;18869;55.970;37.502;2023-05-10T11:29:02;1.50;;;1.33;;
32407;SDS011;18869;55.970;37.502;2023-05-10T11:31:30;1.23;;;1.10;;
32407;SDS011;18869;55.970;37.502;2023-05-10T11:33:59;1.80;;;1.00;;
32407;SDS011;18869;55.970;37.502;2023-05-10T11:36:28;1.67;;;1.50;;
32407;SDS011;18869;55.970;37.502;2023-05-10T11:38:59;3.40;;;1.33;;
32407;SDS011;18869;55.970;37.502;2023-05-10T11:41:27;2.70;;;1.60;;
32407;SDS011;18869;55.970;37.502;2023-05-10T11:43:59;2.37;;;1.20;;
32407;SDS011;18869;55.970;37.502;2023-05-10T11:46:27;3.13;;;1.50;;
32407;SDS011;18869;55.970;37.502;2023-05-10T11:48:57;2.70;;;1.20;;
32407;SDS011;18869;55.970;37.502;2023-05-10T11:51:33;8.10;;;2.00;;
32407;SDS011;18869;55.970;37.502;2023-05-10T11:54:04;8.37;;;2.33;;
32407;SDS011;18869;55.970;37.502;2023-05-10T11:56:34;3.20;;;1.40;;
32407;SDS011;18869;55.970;37.502;2023-05-10T11:59:03;2.93;;;2.27;;
32407;SDS011;18869;55.970;37.502;2023-05-10T12:01:32;1.73;;;1.30;;
32407;SDS011;18869;55.970;37.502;2023-05-10T12:04:05;2.70;;;1.17;;
32407;SDS011;18869;55.970;37.502;2023-05-10T12:06:35;2.30;;;1.17;;
32407;SDS011;18869;55.970;37.502;2023-05-10T12:09:05;2.07;;;1.77;;
32407;SDS011;18869;55.970;37.502;2023-05-10T12:11:35;1.97;;;1.50;;
32407;SDS011;18869;55.970;37.502;2023-05-10T12:14:06;4.37;;;1.80;;
32407;SDS011;18869;55.970;37.502;2023-05-10T12:16:36;3.27;;;1.50;;
32407;SDS011;18869;55.970;37.502;2023-05-10T12:19:05;1.83;;;1.30;;
32407;SDS011;18869;55.970;37.502;2023-05-10T12:21:33;2.67;;;1.80;;
32407;SDS011;18869;55.970;37.502;2023-05-10T12:24:01;9.00;;;1.73;;
32407;SDS011;18869;55.970;37.502;2023-05-10T12:26:30;1.70;;;1.60;;
32407;SDS011;18869;55.970;37.502;2023-05-10T12:29:14;2.20;;;1.50;;
32407;SDS011;18869;55.970;37.502;2023-05-10T12:31:49;3.17;;;1.60;;
32407;SDS011;18869;55.970;37.502;2023-05-10T12:34:30;2.80;;;2.00;;
32407;SDS011;18869;55.970;37.502;2023-05-10T12:37:05;2.50;;;1.80;;
32407;SDS011;18869;55.970;37.502;2023-05-10T12:39:40;2.67;;;1.90;;
32407;SDS011;18869;55.970;37.502;2023-05-10T12:42:08;5.03;;;1.70;;
32407;SDS011;18869;55.970;37.502;2023-05-10T12:44:37;4.63;;;1.93;;
32407;SDS011;18869;55.970;37.502;2023-05-10T12:47:04;3.77;;;1.90;;
32407;SDS011;18869;55.970;37.502;2023-05-10T12:49:34;2.63;;;1.60;;
32407;SDS011;18869;55.970;37.502;2023-05-10T12:52:04;2.00;;;1.47;;
32407;SDS011;18869;55.970;37.502;2023-05-10T12:54:34;2.87;;;1.30;;
32407;SDS011;18869;55.970;37.502;2023-05-10T12:57:02;2.70;;;1.33;;
32407;SDS011;18869;55.970;37.502;2023-05-10T12:59:34;2.07;;;1.63;;
32407;SDS011;18869;55.970;37.502;2023-05-10T13:02:02;2.30;;;1.77;;
32407;SDS011;18869;55.970;37.502;2023-05-10T13:04:30;1.37;;;1.20;;
32407;SDS011;18869;55.970;37.502;2023-05-10T13:06:59;2.37;;;1.30;;
32407;SDS011;18869;55.970;37.502;2023-05-10T13:09:27;5.30;;;1.80;;
32407;SDS011;18869;55.970;37.502;2023-05-10T13:11:55;3.27;;;1.90;;
32407;SDS011;18869;55.970;37.502;2023-05-10T13:14:23;3.87;;;1.67;;
32407;SDS011;18869;55.970;37.502;2023-05-10T13:16:51;1.57;;;1.30;;
32407;SDS011;18869;55.970;37.502;2023-05-10T13:19:19;2.03;;;1.80;;
32407;SDS011;18869;55.970;37.502;2023-05-10T13:21:47;3.03;;;1.80;;
32407;SDS011;18869;55.970;37.502;2023-05-10T13:24:19;2.47;;;1.93;;
32407;SDS011;18869;55.970;37.502;2023-05-10T13:26:48;8.27;;;2.07;;
32407;SDS011;18869;55.970;37.502;2023-05-10T13:29:16;2.40;;;1.73;;
32407;SDS011;18869;55.970;37.502;2023-05-10T13:31:44;2.80;;;1.87;;
32407;SDS011;18869;55.970;37.502;2023-05-10T13:34:13;2.03;;;1.50;;
32407;SDS011;18869;55.970;37.502;2023-05-10T13:36:41;2.40;;;1.80;;
32407;SDS011;18869;55.970;37.502;2023-05-10T13:39:08;2.93;;;1.80;;
32407;SDS011;18869;55.970;37.502;2023-05-10T13:41:37;2.83;;;1.73;;
32407;SDS011;18869;55.970;37.502;2023-05-10T13:44:05;2.67;;;1.93;;
32407;SDS011;18869;55.970;37.502;2023-05-10T13:46:33;4.27;;;2.20;;
32407;SDS011;18869;55.970;37.502;2023-05-10T13:49:01;17.23;;;8.30;;
32407;SDS011;18869;55.970;37.502;2023-05-10T13:51:29;10.80;;;5.80;;
32407;SDS011;18869;55.970;37.502;2023-05-10T13:53:59;10.20;;;3.60;;
32407;SDS011;18869;55.970;37.502;2023-05-10T13:56:27;7.57;;;2.90;;
32407;SDS011;18869;55.970;37.502;2023-05-10T13:58:58;2.77;;;2.20;;
32407;SDS011;18869;55.970;37.502;2023-05-10T14:01:26;2.93;;;2.00;;
32407;SDS011;18869;55.970;37.502;2023-05-10T14:03:55;1.80;;;1.70;;
32407;SDS011;18869;55.970;37.502;2023-05-10T14:06:22;2.83;;;1.67;;
32407;SDS011;18869;55.970;37.502;2023-05-10T14:08:50;2.97;;;1.90;;
32407;SDS011;18869;55.970;37.502;2023-05-10T14:11:18;2.57;;;1.93;;
32407;SDS011;18869;55.970;37.502;2023-05-10T14:13:47;3.80;;;1.83;;
32407;SDS011;18869;55.970;37.502;2023-05-10T14:16:19;3.07;;;2.13;;
32407;SDS011;18869;55.970;37.502;2023-05-10T14:18:48;2.57;;;2.00;;
32407;SDS011;18869;55.970;37.502;2023-05-10T14:21:16;4.03;;;2.67;;
32407;SDS011;18869;55.970;37.502;2023-05-10T14:23:45;4.90;;;3.17;;
32407;SDS011;18869;55.970;37.502;2023-05-10T14:26:13;3.97;;;2.40;;
32407;SDS011;18869;55.970;37.502;2023-05-10T14:28:43;4.83;;;2.07;;
32407;SDS011;18869;55.970;37.502;2023-05-10T14:31:10;3.90;;;2.03;;
32407;SDS011;18869;55.970;37.502;2023-05-10T14:33:40;5.03;;;2.70;;
32407;SDS011;18869;55.970;37.502;2023-05-10T14:36:10;4.27;;;2.30;;
32407;SDS011;18869;55.970;37.502;2023-05-10T14:38:42;4.73;;;2.07;;
32407;SDS011;18869;55.970;37.502;2023-05-10T14:41:10;2.77;;;1.80;;
32407;SDS011;18869;55.970;37.502;2023-05-10T14:43:40;6.73;;;2.53;;
32407;SDS011;18869;55.970;37.502;2023-05-10T14:46:08;2.77;;;2.20;;
32407;SDS011;18869;55.970;37.502;2023-05-10T14:48:36;3.67;;;2.33;;
32407;SDS011;18869;55.970;37.502;2023-05-10T14:51:06;8.23;;;2.10;;
32407;SDS011;18869;55.970;37.502;2023-05-10T14:53:34;4.23;;;2.47;;
32407;SDS011;18869;55.970;37.502;2023-05-10T14:56:02;6.27;;;2.43;;
32407;SDS011;18869;55.970;37.502;2023-05-10T14:58:31;7.53;;;3.47;;
32407;SDS011;18869;55.970;37.502;2023-05-10T15:01:00;8.87;;;4.63;;